WARNING - Change wsUserSettings.php: $SITE["topfolder"] from : DATOS/ to: ./
Welcome to our new website - Welkom op onze vernieuwde website - Bienvenue sur notre nouveau site web - Willkommen auf unserer neuen Website
Check our progress frequently. Prüfen Sie unsere Fortschritte regelmäßig. Consultez notre progression fréquemment. Komt u straks nog eens terug


visit paypall to install this item



Thunder radar more information blitzortung!


Rain radar more information rain snow radar


Visita nuestra red de sitios de meteo:

Template documentation
and downloads

And another site



No particular awareness of the weather is required.    There are no Weather-warnings

Informes METAR proximidad

   
EHVK - Volkel Rnlafb, Netherlands
Distancia hasta la estación: SW 18 km
Actualización: 20-09-2021 02:55
Nubes dispersas  
Nubes dispersas  
   Viento: ENE 7.4 km/h
Viento: ENE 7.4 km/h
Temperatura: 10°C
Térmica: 9°C
Punto de rocio: 8°C
Humedad: 88%
Barometro: 1018 hPa
Nublado: Nubes dispersas
Visibilidad: More than 10 km
detalles de la nube: Nubes dispersas 33000 ft
EHVK 200055Z AUTO 07004KT 9999 FEW330 10/08 Q1018 BLU
EDLV - Niederrhein, Germany
Distancia hasta la estación: SE 25 km
Actualización: 19-09-2021 23:50
NO actual
Claros  
Claros  
   Viento: East 7.4 km/h
Viento: East 7.4 km/h
Temperatura: 13°C
Punto de rocio: 9°C
Humedad: 77%
Barometro: 1017 hPa
Visibilidad: More than 10 km
detalles de la nube: Claros
EDLV 192150Z 08004KT 040V120 CAVOK 13/09 Q1017
EHDL - Deelen Rnlafb, Netherlands
Distancia hasta la estación: N 35 km
Actualización: 20-09-2021 02:55
Nublado  
Nublado  
   Viento: East 5.6 km/h
Viento: East 5.6 km/h
Temperatura: 10°C
Térmica: 9°C
Punto de rocio: 8°C
Humedad: 88%
Barometro: 1018 hPa
Nublado: Nublado
Visibilidad: More than 10 km
detalles de la nube: Nublado 30000 ft
EHDL 200055Z AUTO 10003KT 360V160 9999 OVC300 10/08 Q1018 BLU
EHEH - Eindhoven Rnlafb, Netherlands
Distancia hasta la estación: SW 48 km
Actualización: 20-09-2021 02:55
Nublado  
Nublado  
   Viento: ENE 9.3 km/h
Viento: ENE 9.3 km/h
Temperatura: 12°C
Punto de rocio: 9°C
Humedad: 82%
Barometro: 1017 hPa
Nublado: Nublado
Visibilidad: More than 10 km
detalles de la nube: Parcialmente nublado 4800 ft,
Parcialmente nublado 6500 ft,
Nublado 30000 ft
EHEH 200055Z AUTO 07005KT 9999 BKN048 BKN065 OVC300 12/09 Q1017 BLU
EHGR - Gilze-Rijen Rnla, Netherlands
Distancia hasta la estación: WSW 70 km
Actualización: 20-09-2021 02:55
Nublado  
Nublado  
   Viento: East 14.8 km/h
Viento: East 14.8 km/h
Temperatura: 12°C
Punto de rocio: 9°C
Humedad: 82%
Barometro: 1017 hPa
Nublado: Nublado
Visibilidad: More than 10 km
detalles de la nube: Parcialmente nublado 3700 ft,
Parcialmente nublado 5100 ft,
Nublado 7000 ft
EHGR 200055Z AUTO 09008KT 040V120 9999 BKN037 BKN051 OVC070 12/09 Q1017 BLU
EBBL - Kleine-Brogel(Ba, Belgium
Distancia hasta la estación: SSW 71 km
Actualización: 20-09-2021 02:55
Parcialmente nublado  
Parcialmente nublado  
   Viento: NE 5.6 km/h
Viento: NE 5.6 km/h
Temperatura: 11°C
Punto de rocio: 9°C
Humedad: 88%
Barometro: 1017 hPa
Nublado: Parcialmente nublado
Visibilidad: More than 10 km
detalles de la nube: Parcialmente nublado 5600 ft
EBBL 200055Z AUTO 05003KT 9999 BKN056/// 11/09 Q1017 BLU

Guión original por  Saratoga-weather.org Adaptado para la plantilla por  Weerstation Leuven